クチン の空港の天気 - METARとTAF

クチン国際空港 ( WBGG / KCH ) - マレーシア サラワク州クチン
飛行場実況気象(Metar)
観測時間11/19 18:30 MYT (11/19 10:30 UTC)
風向・風速北西 3m/s
視程10km以上
天気現象
少しの雲 雲底高度 610m
全天の8割程度の雲 雲底高度 9140m
気温28℃
湿度79%
気圧1009hPa
METARWBGG 191030Z 31006KT 240V350 9999 FEW020 BKN300 28/24 Q1009 NOSIG
過去の天気等 Google飛行場航空写真 Wunderground天気予報

過去48時間のMETAR

飛行場予報(TAF)
発表時間: 11/19 13:00 MYT (11/19 05:00 UTC)
予報対象時間: 19日14時 MYT ~ 20日14時 MYT
風向・風速不定 1m/s
視程10km以上
全天の4割程度の雲 雲底高度 610m
19日14時 MYT ~ 19日18時 MYT に一時的に
風向・風速西北西 3m/s
視程3000m
天気現象雷雨
少しの積乱雲 雲底高度 460m
TAF WBGG 190500Z 1906/2006 VRB02KT 9999 SCT020
TEMPO 1906/1910 30006KT 3000 TSRA FEW015CB